Wx Call:

Officer:

Time:

Notes:


Dual

LeFevre

12:06:15 PM


Operational Notices:



Mon, March 4, 2024

Sunset: 05:55 PM
Civil Twilight: 06:21 PM

METARs - SIU Flight Operations - FLYING SALUKIS

KMDH 041752Z 19022G30KT 10SM SCT029 SCT034 BKN041 24/17 A2994 RMK AO2 PK WND 19030/1749 SLP137 T02440167 10244 20156 58013

KMWA 041745Z 19013G22KT 10SM BKN025 BKN034 23/18 A2996

KSAR 041824Z AUTO 20012G19KT 10SM OVC017 20/17 A2993 RMK AO2

KCIR 041835Z AUTO 23015G20KT 10SM BKN039 BKN046 BKN060 26/16 A2996 RMK AO2 T02560159

KFAM 041836Z AUTO 17015G21KT 10SM BKN010 OVC014 19/17 A2992 RMK AO2 PK WND 15026/1818 CIG 008V012

KMVN 041824Z AUTO 19018G22KT 10SM FEW025 OVC034 24/17 A2994 RMK AO2

KHSB 041835Z AUTO 20014G19KT 10SM SCT039 SCT047 BKN050 25/16 A2995 RMK AO2 T02540161

KPAH 041753Z VRB05G16KT 10SM SCT035 BKN046 25/16 A2998 RMK AO2 SLP148 T02500161 10256 20161 58015

KCGI 041753Z 19016G25KT 10SM FEW025 SCT032 BKN046 24/18 A2995 RMK AO2 SLP141 T02440178 10244 20156 58013

KSTL 041751Z 19019G28KT 10SM BKN043 BKN250 24/14 A2988 RMK AO2 PK WND 19030/1734 SLP109 T02390144 10244 20172 56009

KEVV 041834Z 15010G21KT 10SM SCT037 BKN048 24/16 A2999 RMK AO2 T02390156 $